Columbus, Georgia
Current Conditions -  °F | °C
As of 8:51 AM on Thursday 29 Jan 2015 (Local Time) from KCSG Reporting Station
Clear Clear  
Wind Chill:   Ceiling: Unl
Heat Index:   Visibility: 9mi
Dew Point: -1°   Wind: 0mph
Humidity: 79%   Direction: NA
Pressure: 30.32"   Gusts: NA
Location:  32.51°N, 84.93°W
Report Text: KCSG 291351Z AUTO 00000KT 9SM CLR 03/M01 A3032 RMK AO2 SLP268 T00281006
Loading
Personal Weather Stations






























Interactive Weather Map New forecast layout! Learn more

10-Day Weather Forecast

Advertisements
Track Severe Weather on mobile